sensor_id;sensor_type;location;lat;lon;timestamp;temperature;humidity
10417;DHT22;62605;49.432;8.680;2023-04-15T00:00:25;6.50;99.90
10417;DHT22;62605;49.432;8.680;2023-04-15T00:02:53;6.40;50.90
10417;DHT22;62605;49.432;8.680;2023-04-15T00:05:21;6.40;1.00
10417;DHT22;62605;49.432;8.680;2023-04-15T00:07:52;6.40;1.00
10417;DHT22;62605;49.432;8.680;2023-04-15T00:10:20;6.30;1.00
10417;DHT22;62605;49.432;8.680;2023-04-15T00:12:48;6.40;1.00
10417;DHT22;62605;49.432;8.680;2023-04-15T00:15:18;6.30;1.00
10417;DHT22;62605;49.432;8.680;2023-04-15T00:17:49;6.30;1.00
10417;DHT22;62605;49.432;8.680;2023-04-15T00:20:18;6.30;1.00
10417;DHT22;62605;49.432;8.680;2023-04-15T00:22:48;6.40;99.90
10417;DHT22;62605;49.432;8.680;2023-04-15T00:25:16;6.50;1.00
10417;DHT22;62605;49.432;8.680;2023-04-15T00:27:44;6.60;99.90
10417;DHT22;62605;49.432;8.680;2023-04-15T00:30:13;6.90;93.20
10417;DHT22;62605;49.432;8.680;2023-04-15T00:32:41;6.80;99.90
10417;DHT22;62605;49.432;8.680;2023-04-15T00:35:09;6.90;88.60
10417;DHT22;62605;49.432;8.680;2023-04-15T00:37:38;6.90;1.00
10417;DHT22;62605;49.432;8.680;2023-04-15T00:40:12;7.00;1.00
10417;DHT22;62605;49.432;8.680;2023-04-15T00:42:40;6.90;4.90
10417;DHT22;62605;49.432;8.680;2023-04-15T00:45:09;6.70;13.20
10417;DHT22;62605;49.432;8.680;2023-04-15T00:47:37;6.70;1.00
10417;DHT22;62605;49.432;8.680;2023-04-15T00:50:06;6.60;12.70
10417;DHT22;62605;49.432;8.680;2023-04-15T00:52:33;6.50;99.90
10417;DHT22;62605;49.432;8.680;2023-04-15T00:55:03;6.40;99.90
10417;DHT22;62605;49.432;8.680;2023-04-15T00:57:32;6.30;99.90
10417;DHT22;62605;49.432;8.680;2023-04-15T01:00:00;6.20;99.90
10417;DHT22;62605;49.432;8.680;2023-04-15T01:02:31;6.10;99.90
10417;DHT22;62605;49.432;8.680;2023-04-15T01:05:01;6.10;99.90
10417;DHT22;62605;49.432;8.680;2023-04-15T01:07:30;6.10;99.90
10417;DHT22;62605;49.432;8.680;2023-04-15T01:09:58;6.10;99.90
10417;DHT22;62605;49.432;8.680;2023-04-15T01:12:27;6.10;99.90
10417;DHT22;62605;49.432;8.680;2023-04-15T01:14:59;6.20;99.90
10417;DHT22;62605;49.432;8.680;2023-04-15T01:17:26;6.10;99.90
10417;DHT22;62605;49.432;8.680;2023-04-15T01:19:55;6.10;99.90
10417;DHT22;62605;49.432;8.680;2023-04-15T01:22:23;5.90;99.90
10417;DHT22;62605;49.432;8.680;2023-04-15T01:25:00;5.80;99.90
10417;DHT22;62605;49.432;8.680;2023-04-15T01:27:36;5.70;99.90
10417;DHT22;62605;49.432;8.680;2023-04-15T01:30:07;5.60;99.90
10417;DHT22;62605;49.432;8.680;2023-04-15T01:32:36;5.60;99.90
10417;DHT22;62605;49.432;8.680;2023-04-15T01:35:04;5.60;99.90
10417;DHT22;62605;49.432;8.680;2023-04-15T01:37:33;5.60;99.90
10417;DHT22;62605;49.432;8.680;2023-04-15T01:40:00;5.60;99.90
10417;DHT22;62605;49.432;8.680;2023-04-15T01:42:31;5.50;99.90
10417;DHT22;62605;49.432;8.680;2023-04-15T01:45:02;5.50;99.90
10417;DHT22;62605;49.432;8.680;2023-04-15T01:47:31;5.50;99.90
10417;DHT22;62605;49.432;8.680;2023-04-15T01:49:58;5.50;1.00
10417;DHT22;62605;49.432;8.680;2023-04-15T01:52:26;5.50;99.90
10417;DHT22;62605;49.432;8.680;2023-04-15T01:54:53;5.50;99.90
10417;DHT22;62605;49.432;8.680;2023-04-15T01:57:21;5.50;99.90
10417;DHT22;62605;49.432;8.680;2023-04-15T01:59:48;5.60;99.90
10417;DHT22;62605;49.432;8.680;2023-04-15T02:02:18;5.60;99.90
10417;DHT22;62605;49.432;8.680;2023-04-15T02:04:47;5.60;99.90
10417;DHT22;62605;49.432;8.680;2023-04-15T02:07:16;5.60;99.90
10417;DHT22;62605;49.432;8.680;2023-04-15T02:09:45;5.50;99.90
10417;DHT22;62605;49.432;8.680;2023-04-15T02:12:12;5.50;99.90
10417;DHT22;62605;49.432;8.680;2023-04-15T02:14:40;5.50;99.90
10417;DHT22;62605;49.432;8.680;2023-04-15T02:17:07;5.40;99.90
10417;DHT22;62605;49.432;8.680;2023-04-15T02:19:39;5.30;99.90
10417;DHT22;62605;49.432;8.680;2023-04-15T02:22:06;5.20;99.90
10417;DHT22;62605;49.432;8.680;2023-04-15T02:24:34;5.10;99.90
10417;DHT22;62605;49.432;8.680;2023-04-15T02:27:01;5.10;99.90
10417;DHT22;62605;49.432;8.680;2023-04-15T02:29:31;5.00;99.90
10417;DHT22;62605;49.432;8.680;2023-04-15T02:31:58;5.00;99.90
10417;DHT22;62605;49.432;8.680;2023-04-15T02:34:26;4.90;99.90
10417;DHT22;62605;49.432;8.680;2023-04-15T02:36:54;4.90;99.90
10417;DHT22;62605;49.432;8.680;2023-04-15T02:39:23;4.90;99.90
10417;DHT22;62605;49.432;8.680;2023-04-15T02:41:50;4.90;99.90
10417;DHT22;62605;49.432;8.680;2023-04-15T02:44:19;4.90;99.90
10417;DHT22;62605;49.432;8.680;2023-04-15T02:46:49;4.90;99.90
10417;DHT22;62605;49.432;8.680;2023-04-15T02:49:20;4.70;99.90
10417;DHT22;62605;49.432;8.680;2023-04-15T02:51:49;4.90;99.90
10417;DHT22;62605;49.432;8.680;2023-04-15T02:54:21;4.90;99.90
10417;DHT22;62605;49.432;8.680;2023-04-15T02:56:49;5.00;99.90
10417;DHT22;62605;49.432;8.680;2023-04-15T02:59:16;4.90;99.90
10417;DHT22;62605;49.432;8.680;2023-04-15T03:01:46;4.90;99.90
10417;DHT22;62605;49.432;8.680;2023-04-15T03:04:13;5.00;99.90
10417;DHT22;62605;49.432;8.680;2023-04-15T03:06:41;5.00;99.90
10417;DHT22;62605;49.432;8.680;2023-04-15T03:09:08;5.10;99.90
10417;DHT22;62605;49.432;8.680;2023-04-15T03:11:38;5.00;99.90
10417;DHT22;62605;49.432;8.680;2023-04-15T03:14:07;5.00;99.90
10417;DHT22;62605;49.432;8.680;2023-04-15T03:16:37;4.90;99.90
10417;DHT22;62605;49.432;8.680;2023-04-15T03:19:04;4.90;99.90
10417;DHT22;62605;49.432;8.680;2023-04-15T03:21:33;4.90;99.90
10417;DHT22;62605;49.432;8.680;2023-04-15T03:24:01;4.80;99.90
10417;DHT22;62605;49.432;8.680;2023-04-15T03:26:33;4.80;99.90
10417;DHT22;62605;49.432;8.680;2023-04-15T03:29:02;4.80;99.90
10417;DHT22;62605;49.432;8.680;2023-04-15T03:31:31;4.80;99.90
10417;DHT22;62605;49.432;8.680;2023-04-15T03:34:01;4.80;99.90
10417;DHT22;62605;49.432;8.680;2023-04-15T03:36:30;4.80;99.90
10417;DHT22;62605;49.432;8.680;2023-04-15T03:38:59;4.80;99.90
10417;DHT22;62605;49.432;8.680;2023-04-15T03:41:26;4.80;99.90
10417;DHT22;62605;49.432;8.680;2023-04-15T03:43:55;4.90;99.90
10417;DHT22;62605;49.432;8.680;2023-04-15T03:46:23;4.90;99.90
10417;DHT22;62605;49.432;8.680;2023-04-15T03:48:52;4.90;99.90
10417;DHT22;62605;49.432;8.680;2023-04-15T03:51:21;4.80;99.90
10417;DHT22;62605;49.432;8.680;2023-04-15T03:53:48;4.90;99.90
10417;DHT22;62605;49.432;8.680;2023-04-15T03:56:17;4.70;99.90
10417;DHT22;62605;49.432;8.680;2023-04-15T03:58:45;4.70;99.90
10417;DHT22;62605;49.432;8.680;2023-04-15T04:01:13;4.80;99.90
10417;DHT22;62605;49.432;8.680;2023-04-15T04:03:43;4.80;99.90
10417;DHT22;62605;49.432;8.680;2023-04-15T04:06:11;4.60;99.90
10417;DHT22;62605;49.432;8.680;2023-04-15T04:08:38;4.60;99.90
10417;DHT22;62605;49.432;8.680;2023-04-15T04:11:05;4.50;99.90
10417;DHT22;62605;49.432;8.680;2023-04-15T04:13:33;4.40;99.90
10417;DHT22;62605;49.432;8.680;2023-04-15T04:16:01;4.20;99.90
10417;DHT22;62605;49.432;8.680;2023-04-15T04:18:30;4.10;99.90
10417;DHT22;62605;49.432;8.680;2023-04-15T04:21:01;4.20;99.90
10417;DHT22;62605;49.432;8.680;2023-04-15T04:23:28;4.20;99.90
10417;DHT22;62605;49.432;8.680;2023-04-15T04:25:59;4.30;99.90
10417;DHT22;62605;49.432;8.680;2023-04-15T04:28:27;4.30;99.90
10417;DHT22;62605;49.432;8.680;2023-04-15T04:30:56;4.30;99.90
10417;DHT22;62605;49.432;8.680;2023-04-15T04:33:24;4.40;99.90
10417;DHT22;62605;49.432;8.680;2023-04-15T04:35:54;4.40;99.90
10417;DHT22;62605;49.432;8.680;2023-04-15T04:38:24;4.40;99.90
10417;DHT22;62605;49.432;8.680;2023-04-15T04:40:51;4.60;99.90
10417;DHT22;62605;49.432;8.680;2023-04-15T04:43:19;4.60;99.90
10417;DHT22;62605;49.432;8.680;2023-04-15T04:45:47;4.80;99.90
10417;DHT22;62605;49.432;8.680;2023-04-15T04:48:15;4.70;99.90
10417;DHT22;62605;49.432;8.680;2023-04-15T04:50:44;4.70;99.90
10417;DHT22;62605;49.432;8.680;2023-04-15T04:53:11;4.60;99.90
10417;DHT22;62605;49.432;8.680;2023-04-15T04:55:41;4.60;99.90
10417;DHT22;62605;49.432;8.680;2023-04-15T04:58:08;4.60;99.90
10417;DHT22;62605;49.432;8.680;2023-04-15T05:00:37;4.60;99.90
10417;DHT22;62605;49.432;8.680;2023-04-15T05:49:34;4.40;99.90
10417;DHT22;62605;49.432;8.680;2023-04-15T05:52:01;4.40;99.90
10417;DHT22;62605;49.432;8.680;2023-04-15T05:54:28;4.40;99.90
10417;DHT22;62605;49.432;8.680;2023-04-15T05:56:55;4.40;99.90
10417;DHT22;62605;49.432;8.680;2023-04-15T05:59:23;4.60;99.90
10417;DHT22;62605;49.432;8.680;2023-04-15T06:01:50;4.70;99.90
10417;DHT22;62605;49.432;8.680;2023-04-15T06:04:18;4.80;99.90
10417;DHT22;62605;49.432;8.680;2023-04-15T06:06:47;4.90;99.90
10417;DHT22;62605;49.432;8.680;2023-04-15T06:09:14;4.90;99.90
10417;DHT22;62605;49.432;8.680;2023-04-15T06:11:42;4.90;99.90
10417;DHT22;62605;49.432;8.680;2023-04-15T06:14:09;5.00;99.90
10417;DHT22;62605;49.432;8.680;2023-04-15T06:16:37;5.10;99.90
10417;DHT22;62605;49.432;8.680;2023-04-15T06:19:04;5.20;99.90
10417;DHT22;62605;49.432;8.680;2023-04-15T06:21:32;5.40;99.90
10417;DHT22;62605;49.432;8.680;2023-04-15T06:24:00;5.60;99.90
10417;DHT22;62605;49.432;8.680;2023-04-15T06:26:28;5.70;99.90
10417;DHT22;62605;49.432;8.680;2023-04-15T06:28:56;5.90;99.90
10417;DHT22;62605;49.432;8.680;2023-04-15T06:31:24;6.00;99.90
10417;DHT22;62605;49.432;8.680;2023-04-15T06:33:51;6.00;99.90
10417;DHT22;62605;49.432;8.680;2023-04-15T06:36:18;6.10;99.90
10417;DHT22;62605;49.432;8.680;2023-04-15T06:38:45;6.20;99.90
10417;DHT22;62605;49.432;8.680;2023-04-15T06:41:14;6.30;99.90
10417;DHT22;62605;49.432;8.680;2023-04-15T06:43:41;6.40;99.90
10417;DHT22;62605;49.432;8.680;2023-04-15T06:46:09;6.50;99.90
10417;DHT22;62605;49.432;8.680;2023-04-15T06:48:37;6.60;99.90
10417;DHT22;62605;49.432;8.680;2023-04-15T06:51:04;6.80;99.90
10417;DHT22;62605;49.432;8.680;2023-04-15T06:53:32;6.80;99.90
10417;DHT22;62605;49.432;8.680;2023-04-15T06:56:00;6.90;99.90
10417;DHT22;62605;49.432;8.680;2023-04-15T06:58:29;6.90;99.90
10417;DHT22;62605;49.432;8.680;2023-04-15T07:00:57;7.00;99.90
10417;DHT22;62605;49.432;8.680;2023-04-15T07:03:24;7.10;99.90
10417;DHT22;62605;49.432;8.680;2023-04-15T07:05:51;7.10;99.90
10417;DHT22;62605;49.432;8.680;2023-04-15T07:08:19;7.20;99.90
10417;DHT22;62605;49.432;8.680;2023-04-15T07:10:46;7.30;99.90
10417;DHT22;62605;49.432;8.680;2023-04-15T07:13:13;7.40;99.90
10417;DHT22;62605;49.432;8.680;2023-04-15T07:15:41;7.40;99.90
10417;DHT22;62605;49.432;8.680;2023-04-15T07:18:10;7.60;99.90
10417;DHT22;62605;49.432;8.680;2023-04-15T07:20:40;7.70;99.90
10417;DHT22;62605;49.432;8.680;2023-04-15T07:23:07;7.90;1.00
10417;DHT22;62605;49.432;8.680;2023-04-15T07:25:36;7.90;1.00
10417;DHT22;62605;49.432;8.680;2023-04-15T07:28:04;8.00;1.00
10417;DHT22;62605;49.432;8.680;2023-04-15T07:30:31;8.00;1.00
10417;DHT22;62605;49.432;8.680;2023-04-15T07:33:00;8.20;1.00
10417;DHT22;62605;49.432;8.680;2023-04-15T07:35:28;8.40;99.90
10417;DHT22;62605;49.432;8.680;2023-04-15T07:37:55;8.40;99.90
10417;DHT22;62605;49.432;8.680;2023-04-15T07:40:22;8.60;99.90
10417;DHT22;62605;49.432;8.680;2023-04-15T07:42:49;8.60;99.90
10417;DHT22;62605;49.432;8.680;2023-04-15T07:45:16;8.70;99.90
10417;DHT22;62605;49.432;8.680;2023-04-15T07:47:43;8.80;99.90
10417;DHT22;62605;49.432;8.680;2023-04-15T07:50:12;8.70;99.90
10417;DHT22;62605;49.432;8.680;2023-04-15T07:52:41;8.70;99.90
10417;DHT22;62605;49.432;8.680;2023-04-15T07:55:09;8.80;99.90
10417;DHT22;62605;49.432;8.680;2023-04-15T07:57:36;9.10;99.90
10417;DHT22;62605;49.432;8.680;2023-04-15T08:00:04;9.20;99.90
10417;DHT22;62605;49.432;8.680;2023-04-15T08:02:32;9.30;99.90
10417;DHT22;62605;49.432;8.680;2023-04-15T08:04:59;9.30;99.90
10417;DHT22;62605;49.432;8.680;2023-04-15T08:07:30;8.90;92.10
10417;DHT22;62605;49.432;8.680;2023-04-15T08:09:57;9.30;99.90
10417;DHT22;62605;49.432;8.680;2023-04-15T08:12:24;9.10;95.70
10417;DHT22;62605;49.432;8.680;2023-04-15T08:14:51;9.00;96.30
10417;DHT22;62605;49.432;8.680;2023-04-15T08:17:19;9.00;77.60
10417;DHT22;62605;49.432;8.680;2023-04-15T08:19:46;9.10;89.60
10417;DHT22;62605;49.432;8.680;2023-04-15T08:22:14;9.30;76.20
10417;DHT22;62605;49.432;8.680;2023-04-15T08:24:42;9.60;54.50
10417;DHT22;62605;49.432;8.680;2023-04-15T08:27:11;9.50;31.70
10417;DHT22;62605;49.432;8.680;2023-04-15T08:29:38;9.50;91.60
10417;DHT22;62605;49.432;8.680;2023-04-15T08:32:05;9.30;61.80
10417;DHT22;62605;49.432;8.680;2023-04-15T08:34:32;9.50;28.20
10417;DHT22;62605;49.432;8.680;2023-04-15T08:37:00;9.60;6.90
10417;DHT22;62605;49.432;8.680;2023-04-15T08:39:27;9.60;1.00
10417;DHT22;62605;49.432;8.680;2023-04-15T08:42:00;9.90;1.00
10417;DHT22;62605;49.432;8.680;2023-04-15T08:44:28;9.90;1.00
10417;DHT22;62605;49.432;8.680;2023-04-15T08:47:00;10.00;1.00
10417;DHT22;62605;49.432;8.680;2023-04-15T08:49:29;10.00;1.00
10417;DHT22;62605;49.432;8.680;2023-04-15T08:51:58;10.10;1.00
10417;DHT22;62605;49.432;8.680;2023-04-15T08:54:26;10.50;1.00
10417;DHT22;62605;49.432;8.680;2023-04-15T08:56:56;10.60;1.00
10417;DHT22;62605;49.432;8.680;2023-04-15T08:59:23;10.80;1.00
10417;DHT22;62605;49.432;8.680;2023-04-15T09:01:51;10.80;1.00
10417;DHT22;62605;49.432;8.680;2023-04-15T09:04:18;10.80;1.00
10417;DHT22;62605;49.432;8.680;2023-04-15T09:06:46;10.80;1.00
10417;DHT22;62605;49.432;8.680;2023-04-15T09:09:13;11.10;1.00
10417;DHT22;62605;49.432;8.680;2023-04-15T09:11:41;11.50;1.00
10417;DHT22;62605;49.432;8.680;2023-04-15T09:14:11;11.60;1.00
10417;DHT22;62605;49.432;8.680;2023-04-15T09:16:58;11.20;1.00
10417;DHT22;62605;49.432;8.680;2023-04-15T09:19:26;11.30;1.00
10417;DHT22;62605;49.432;8.680;2023-04-15T09:21:54;11.40;1.00
10417;DHT22;62605;49.432;8.680;2023-04-15T09:24:22;11.60;1.00
10417;DHT22;62605;49.432;8.680;2023-04-15T09:26:52;11.70;1.00
10417;DHT22;62605;49.432;8.680;2023-04-15T09:29:25;11.90;1.00
10417;DHT22;62605;49.432;8.680;2023-04-15T09:31:52;12.20;1.00
10417;DHT22;62605;49.432;8.680;2023-04-15T09:34:19;12.10;1.00
10417;DHT22;62605;49.432;8.680;2023-04-15T09:36:54;12.10;1.00
10417;DHT22;62605;49.432;8.680;2023-04-15T09:39:22;12.40;1.00
10417;DHT22;62605;49.432;8.680;2023-04-15T09:42:03;12.60;1.00
10417;DHT22;62605;49.432;8.680;2023-04-15T09:44:33;12.70;1.00
10417;DHT22;62605;49.432;8.680;2023-04-15T09:47:01;12.80;1.00
10417;DHT22;62605;49.432;8.680;2023-04-15T09:49:28;12.90;1.00
10417;DHT22;62605;49.432;8.680;2023-04-15T09:51:59;13.00;1.00
10417;DHT22;62605;49.432;8.680;2023-04-15T09:54:37;13.50;1.00
10417;DHT22;62605;49.432;8.680;2023-04-15T09:57:05;13.60;1.00
10417;DHT22;62605;49.432;8.680;2023-04-15T09:59:34;14.00;1.00
10417;DHT22;62605;49.432;8.680;2023-04-15T10:02:03;13.90;1.00
10417;DHT22;62605;49.432;8.680;2023-04-15T10:04:34;13.70;1.00
10417;DHT22;62605;49.432;8.680;2023-04-15T10:07:04;13.80;1.00
10417;DHT22;62605;49.432;8.680;2023-04-15T10:09:31;13.80;1.00
10417;DHT22;62605;49.432;8.680;2023-04-15T10:11:59;13.60;1.00
10417;DHT22;62605;49.432;8.680;2023-04-15T10:14:28;13.70;1.00
10417;DHT22;62605;49.432;8.680;2023-04-15T10:17:01;13.30;99.90
10417;DHT22;62605;49.432;8.680;2023-04-15T10:19:30;13.60;99.90
10417;DHT22;62605;49.432;8.680;2023-04-15T10:21:59;13.70;99.90
10417;DHT22;62605;49.432;8.680;2023-04-15T10:24:27;13.80;99.90
10417;DHT22;62605;49.432;8.680;2023-04-15T10:26:56;14.00;99.90
10417;DHT22;62605;49.432;8.680;2023-04-15T10:29:24;14.10;99.90
10417;DHT22;62605;49.432;8.680;2023-04-15T10:31:53;14.20;99.90
10417;DHT22;62605;49.432;8.680;2023-04-15T10:34:23;14.20;99.90
10417;DHT22;62605;49.432;8.680;2023-04-15T10:36:50;14.00;99.90
10417;DHT22;62605;49.432;8.680;2023-04-15T10:39:40;14.10;99.90
10417;DHT22;62605;49.432;8.680;2023-04-15T10:42:10;14.00;99.90
10417;DHT22;62605;49.432;8.680;2023-04-15T10:44:38;13.80;99.90
10417;DHT22;62605;49.432;8.680;2023-04-15T10:47:11;13.70;99.90
10417;DHT22;62605;49.432;8.680;2023-04-15T10:49:47;14.10;99.90
10417;DHT22;62605;49.432;8.680;2023-04-15T10:52:16;14.20;99.90
10417;DHT22;62605;49.432;8.680;2023-04-15T10:54:44;14.20;99.90
10417;DHT22;62605;49.432;8.680;2023-04-15T10:57:21;14.00;99.90
10417;DHT22;62605;49.432;8.680;2023-04-15T11:00:03;14.10;99.90
10417;DHT22;62605;49.432;8.680;2023-04-15T11:02:41;14.10;99.90
10417;DHT22;62605;49.432;8.680;2023-04-15T11:05:14;13.90;99.90
10417;DHT22;62605;49.432;8.680;2023-04-15T11:07:51;14.00;99.90
10417;DHT22;62605;49.432;8.680;2023-04-15T11:10:52;14.20;99.90
10417;DHT22;62605;49.432;8.680;2023-04-15T11:13:24;14.30;99.90
10417;DHT22;62605;49.432;8.680;2023-04-15T11:15:59;14.40;99.90
10417;DHT22;62605;49.432;8.680;2023-04-15T11:18:29;14.30;99.90
10417;DHT22;62605;49.432;8.680;2023-04-15T11:21:01;13.70;99.90
10417;DHT22;62605;49.432;8.680;2023-04-15T11:23:31;13.70;99.90
10417;DHT22;62605;49.432;8.680;2023-04-15T11:25:59;13.70;99.90
10417;DHT22;62605;49.432;8.680;2023-04-15T11:28:28;13.60;99.90
10417;DHT22;62605;49.432;8.680;2023-04-15T11:30:56;13.40;99.90
10417;DHT22;62605;49.432;8.680;2023-04-15T11:33:24;13.40;99.90
10417;DHT22;62605;49.432;8.680;2023-04-15T11:35:52;13.20;99.90
10417;DHT22;62605;49.432;8.680;2023-04-15T11:38:21;13.30;99.90
10417;DHT22;62605;49.432;8.680;2023-04-15T11:40:50;13.20;99.90
10417;DHT22;62605;49.432;8.680;2023-04-15T11:43:19;13.20;99.90
10417;DHT22;62605;49.432;8.680;2023-04-15T11:45:49;13.30;99.90
10417;DHT22;62605;49.432;8.680;2023-04-15T11:48:17;13.40;99.90
10417;DHT22;62605;49.432;8.680;2023-04-15T11:50:45;13.80;99.90
10417;DHT22;62605;49.432;8.680;2023-04-15T11:53:13;13.80;99.90
10417;DHT22;62605;49.432;8.680;2023-04-15T11:55:43;13.70;99.90
10417;DHT22;62605;49.432;8.680;2023-04-15T11:58:12;13.70;99.90
10417;DHT22;62605;49.432;8.680;2023-04-15T12:00:41;13.70;99.90
10417;DHT22;62605;49.432;8.680;2023-04-15T12:03:20;13.80;99.90
10417;DHT22;62605;49.432;8.680;2023-04-15T12:06:04;13.80;99.90
10417;DHT22;62605;49.432;8.680;2023-04-15T12:08:56;14.10;99.90
10417;DHT22;62605;49.432;8.680;2023-04-15T12:11:37;14.00;99.90
10417;DHT22;62605;49.432;8.680;2023-04-15T12:14:10;14.40;97.90
10417;DHT22;62605;49.432;8.680;2023-04-15T12:16:39;14.20;84.00
10417;DHT22;62605;49.432;8.680;2023-04-15T12:19:10;14.20;73.20
10417;DHT22;62605;49.432;8.680;2023-04-15T12:21:39;13.80;57.90
10417;DHT22;62605;49.432;8.680;2023-04-15T12:24:08;14.00;52.50
10417;DHT22;62605;49.432;8.680;2023-04-15T12:26:42;14.10;50.00
10417;DHT22;62605;49.432;8.680;2023-04-15T12:29:10;13.90;42.20
10417;DHT22;62605;49.432;8.680;2023-04-15T12:31:49;13.70;32.00
10417;DHT22;62605;49.432;8.680;2023-04-15T12:34:18;13.70;31.50
10417;DHT22;62605;49.432;8.680;2023-04-15T12:36:45;13.50;20.50
10417;DHT22;62605;49.432;8.680;2023-04-15T12:39:13;13.40;19.50
10417;DHT22;62605;49.432;8.680;2023-04-15T12:41:42;13.50;9.90
10417;DHT22;62605;49.432;8.680;2023-04-15T12:44:09;13.50;12.70
10417;DHT22;62605;49.432;8.680;2023-04-15T12:46:36;13.20;8.50
10417;DHT22;62605;49.432;8.680;2023-04-15T12:49:03;13.30;13.40
10417;DHT22;62605;49.432;8.680;2023-04-15T12:51:30;13.30;10.30
10417;DHT22;62605;49.432;8.680;2023-04-15T12:53:58;13.30;6.80
10417;DHT22;62605;49.432;8.680;2023-04-15T12:56:24;13.10;1.00
10417;DHT22;62605;49.432;8.680;2023-04-15T12:58:53;13.40;1.00
10417;DHT22;62605;49.432;8.680;2023-04-15T13:01:20;13.40;1.00
10417;DHT22;62605;49.432;8.680;2023-04-15T13:03:47;13.40;1.00
10417;DHT22;62605;49.432;8.680;2023-04-15T13:06:15;13.40;1.00
10417;DHT22;62605;49.432;8.680;2023-04-15T13:08:42;13.70;1.00
10417;DHT22;62605;49.432;8.680;2023-04-15T13:11:10;13.60;1.00
10417;DHT22;62605;49.432;8.680;2023-04-15T13:13:37;13.70;1.00
10417;DHT22;62605;49.432;8.680;2023-04-15T13:16:06;13.70;1.00
10417;DHT22;62605;49.432;8.680;2023-04-15T13:18:34;13.50;1.00
10417;DHT22;62605;49.432;8.680;2023-04-15T13:21:01;13.50;1.00
10417;DHT22;62605;49.432;8.680;2023-04-15T13:23:28;13.60;1.00
10417;DHT22;62605;49.432;8.680;2023-04-15T13:25:56;13.50;1.00
10417;DHT22;62605;49.432;8.680;2023-04-15T13:28:23;13.50;1.00
10417;DHT22;62605;49.432;8.680;2023-04-15T13:30:50;13.60;1.00
10417;DHT22;62605;49.432;8.680;2023-04-15T13:33:19;13.70;1.00
10417;DHT22;62605;49.432;8.680;2023-04-15T13:35:47;13.80;1.00
10417;DHT22;62605;49.432;8.680;2023-04-15T13:38:14;13.80;1.00
10417;DHT22;62605;49.432;8.680;2023-04-15T13:40:41;13.80;1.00
10417;DHT22;62605;49.432;8.680;2023-04-15T13:43:08;13.70;1.00
10417;DHT22;62605;49.432;8.680;2023-04-15T13:45:35;13.50;1.00
10417;DHT22;62605;49.432;8.680;2023-04-15T13:48:04;13.40;1.00
10417;DHT22;62605;49.432;8.680;2023-04-15T13:50:33;13.50;1.00
10417;DHT22;62605;49.432;8.680;2023-04-15T13:53:00;13.30;1.00
10417;DHT22;62605;49.432;8.680;2023-04-15T13:55:27;13.30;1.00
10417;DHT22;62605;49.432;8.680;2023-04-15T13:57:55;13.30;1.00
10417;DHT22;62605;49.432;8.680;2023-04-15T14:00:23;13.10;1.00
10417;DHT22;62605;49.432;8.680;2023-04-15T14:02:50;13.10;1.00
10417;DHT22;62605;49.432;8.680;2023-04-15T14:05:17;13.40;1.00
10417;DHT22;62605;49.432;8.680;2023-04-15T14:07:47;13.50;1.00
10417;DHT22;62605;49.432;8.680;2023-04-15T14:10:13;13.40;1.00
10417;DHT22;62605;49.432;8.680;2023-04-15T14:12:42;13.40;1.00
10417;DHT22;62605;49.432;8.680;2023-04-15T14:15:09;13.40;1.00
10417;DHT22;62605;49.432;8.680;2023-04-15T14:17:37;13.60;1.00
10417;DHT22;62605;49.432;8.680;2023-04-15T14:20:07;13.60;1.00
10417;DHT22;62605;49.432;8.680;2023-04-15T14:22:34;13.30;1.00
10417;DHT22;62605;49.432;8.680;2023-04-15T14:25:03;13.50;1.00
10417;DHT22;62605;49.432;8.680;2023-04-15T14:27:31;13.10;1.00
10417;DHT22;62605;49.432;8.680;2023-04-15T14:29:59;12.90;1.00
10417;DHT22;62605;49.432;8.680;2023-04-15T14:32:26;12.80;1.00
10417;DHT22;62605;49.432;8.680;2023-04-15T14:34:54;12.50;1.00
10417;DHT22;62605;49.432;8.680;2023-04-15T14:37:23;12.30;1.00
10417;DHT22;62605;49.432;8.680;2023-04-15T14:39:50;12.20;1.00
10417;DHT22;62605;49.432;8.680;2023-04-15T14:42:21;12.40;1.00
10417;DHT22;62605;49.432;8.680;2023-04-15T14:44:48;12.40;1.00
10417;DHT22;62605;49.432;8.680;2023-04-15T14:47:15;12.20;1.00
10417;DHT22;62605;49.432;8.680;2023-04-15T14:49:42;12.40;6.50
10417;DHT22;62605;49.432;8.680;2023-04-15T14:52:09;12.30;16.50
10417;DHT22;62605;49.432;8.680;2023-04-15T14:54:37;12.20;22.80
10417;DHT22;62605;49.432;8.680;2023-04-15T14:57:04;12.00;28.50
10417;DHT22;62605;49.432;8.680;2023-04-15T14:59:41;12.00;38.60
10417;DHT22;62605;49.432;8.680;2023-04-15T15:02:09;12.00;56.20
10417;DHT22;62605;49.432;8.680;2023-04-15T15:04:38;11.90;72.80
10417;DHT22;62605;49.432;8.680;2023-04-15T15:07:05;11.80;95.50
10417;DHT22;62605;49.432;8.680;2023-04-15T15:09:33;11.80;99.90
10417;DHT22;62605;49.432;8.680;2023-04-15T15:12:00;11.90;99.90
10417;DHT22;62605;49.432;8.680;2023-04-15T15:14:28;11.80;99.90
10417;DHT22;62605;49.432;8.680;2023-04-15T15:16:58;11.60;99.90
10417;DHT22;62605;49.432;8.680;2023-04-15T15:19:25;11.40;99.90
10417;DHT22;62605;49.432;8.680;2023-04-15T15:21:53;11.20;99.90
10417;DHT22;62605;49.432;8.680;2023-04-15T15:24:20;11.20;99.90
10417;DHT22;62605;49.432;8.680;2023-04-15T15:26:48;11.20;99.90
10417;DHT22;62605;49.432;8.680;2023-04-15T15:29:16;11.10;99.90
10417;DHT22;62605;49.432;8.680;2023-04-15T15:31:43;10.90;99.90
10417;DHT22;62605;49.432;8.680;2023-04-15T15:34:14;10.90;99.90
10417;DHT22;62605;49.432;8.680;2023-04-15T15:36:41;10.70;99.90
10417;DHT22;62605;49.432;8.680;2023-04-15T15:39:09;10.70;99.90
10417;DHT22;62605;49.432;8.680;2023-04-15T15:41:36;10.70;99.90
10417;DHT22;62605;49.432;8.680;2023-04-15T15:44:04;10.70;99.90
10417;DHT22;62605;49.432;8.680;2023-04-15T15:46:32;10.80;99.90
10417;DHT22;62605;49.432;8.680;2023-04-15T15:49:01;10.80;99.90
10417;DHT22;62605;49.432;8.680;2023-04-15T15:51:30;10.70;99.90
10417;DHT22;62605;49.432;8.680;2023-04-15T15:53:59;10.70;99.90
10417;DHT22;62605;49.432;8.680;2023-04-15T15:56:26;10.60;1.00
10417;DHT22;62605;49.432;8.680;2023-04-15T15:58:53;10.50;1.00
10417;DHT22;62605;49.432;8.680;2023-04-15T16:01:21;10.40;1.00
10417;DHT22;62605;49.432;8.680;2023-04-15T16:03:48;10.30;1.00
10417;DHT22;62605;49.432;8.680;2023-04-15T16:06:16;10.30;1.00
10417;DHT22;62605;49.432;8.680;2023-04-15T16:08:48;10.40;1.00
10417;DHT22;62605;49.432;8.680;2023-04-15T16:11:16;10.30;1.00
10417;DHT22;62605;49.432;8.680;2023-04-15T16:13:42;10.20;1.00
10417;DHT22;62605;49.432;8.680;2023-04-15T16:16:11;10.20;59.00
10417;DHT22;62605;49.432;8.680;2023-04-15T16:18:39;10.10;99.90
10417;DHT22;62605;49.432;8.680;2023-04-15T16:21:07;10.10;99.90
10417;DHT22;62605;49.432;8.680;2023-04-15T16:23:35;10.10;99.90
10417;DHT22;62605;49.432;8.680;2023-04-15T16:26:05;10.20;99.90
10417;DHT22;62605;49.432;8.680;2023-04-15T16:28:32;10.20;99.90
10417;DHT22;62605;49.432;8.680;2023-04-15T16:31:00;10.20;1.00
10417;DHT22;62605;49.432;8.680;2023-04-15T16:33:28;10.00;42.20
10417;DHT22;62605;49.432;8.680;2023-04-15T16:35:55;9.90;99.90
10417;DHT22;62605;49.432;8.680;2023-04-15T16:38:22;9.90;99.90